createdAt,value
2023-04-11T00:00:12.901Z,81.23
2023-04-11T00:01:03.662Z,81.32
2023-04-11T00:01:54.468Z,81.32
2023-04-11T00:02:45.478Z,81.12
2023-04-11T00:03:36.592Z,81.12
2023-04-11T00:04:27.631Z,81.12
2023-04-11T00:05:18.392Z,81.23
2023-04-11T00:06:09.153Z,81.37
2023-04-11T00:06:59.936Z,81.57
2023-04-11T00:07:50.726Z,81.57
2023-04-11T00:08:41.534Z,81.57
2023-04-11T00:09:32.310Z,81.77
2023-04-11T00:10:23.080Z,81.77
2023-04-11T00:11:13.873Z,82.08
2023-04-11T00:12:04.665Z,81.98
2023-04-11T00:12:55.462Z,81.98
2023-04-11T00:13:46.253Z,81.98
2023-04-11T00:14:37.035Z,82.08
2023-04-11T00:15:27.807Z,82.28
2023-04-11T00:16:18.637Z,82.49
2023-04-11T00:17:09.380Z,82.59
2023-04-11T00:18:00.238Z,82.69
2023-04-11T00:18:50.968Z,82.59
2023-04-11T00:19:41.752Z,82.49
2023-04-11T00:20:32.541Z,82.79
2023-04-11T00:21:23.342Z,82.89
2023-04-11T00:22:14.126Z,82.79
2023-04-11T00:23:04.914Z,82.79
2023-04-11T00:23:55.702Z,82.89
2023-04-11T00:24:46.472Z,82.93
2023-04-11T00:25:37.294Z,83.10
2023-04-11T00:26:28.056Z,83.44
2023-04-11T00:27:21.302Z,83.44
2023-04-11T00:28:09.916Z,83.44
2023-04-11T00:29:00.836Z,83.54
2023-04-11T00:29:51.552Z,83.75
2023-04-11T00:30:42.369Z,83.85
2023-04-11T00:31:33.159Z,83.95
2023-04-11T00:32:23.959Z,84.06
2023-04-11T00:33:14.770Z,84.26
2023-04-11T00:34:05.501Z,84.36
2023-04-11T00:34:56.301Z,84.57
2023-04-11T00:35:47.121Z,84.36
2023-04-11T00:36:37.951Z,84.57
2023-04-11T00:37:28.815Z,84.67
2023-04-11T00:38:19.580Z,84.57
2023-04-11T00:39:10.489Z,84.67
2023-04-11T00:40:01.209Z,84.77
2023-04-11T00:40:51.965Z,84.88
2023-04-11T00:41:42.752Z,84.88
2023-04-11T00:42:33.554Z,85.08
2023-04-11T00:43:24.343Z,85.18
2023-04-11T00:44:15.127Z,85.28
2023-04-11T00:45:05.914Z,85.38
2023-04-11T00:45:56.730Z,85.28
2023-04-11T00:46:47.491Z,85.18
2023-04-11T00:47:38.336Z,85.49
2023-04-11T00:48:29.122Z,85.49
2023-04-11T00:49:19.878Z,85.49
2023-04-11T00:50:10.666Z,85.63
2023-04-11T00:51:01.443Z,85.83
2023-04-11T00:51:52.196Z,85.83
2023-04-11T00:52:43.046Z,85.83
2023-04-11T00:53:33.825Z,86.04
2023-04-11T00:54:24.618Z,86.24
2023-04-11T00:55:15.383Z,86.24
2023-04-11T00:56:06.182Z,86.24
2023-04-11T00:56:56.972Z,86.44
2023-04-11T00:57:47.759Z,86.76
2023-04-11T00:58:38.580Z,86.85
2023-04-11T00:59:29.360Z,86.85
2023-04-11T01:00:20.083Z,86.96
2023-04-11T01:01:10.884Z,87.16
2023-04-11T01:02:01.833Z,86.96
2023-04-11T01:02:53.003Z,87.16
2023-04-11T01:03:43.850Z,87.47
2023-04-11T01:04:34.617Z,87.57
2023-04-11T01:05:25.397Z,87.77
2023-04-11T01:06:16.182Z,87.88
2023-04-11T01:07:06.972Z,87.88
2023-04-11T01:07:57.809Z,87.98
2023-04-11T01:08:48.550Z,87.98
2023-04-11T01:09:39.362Z,88.08
2023-04-11T01:10:30.140Z,88.18
2023-04-11T01:11:20.932Z,88.29
2023-04-11T01:12:11.745Z,88.39
2023-04-11T01:13:02.522Z,88.49
2023-04-11T01:13:53.328Z,88.49
2023-04-11T01:14:44.091Z,88.49
2023-04-11T01:15:34.878Z,88.49
2023-04-11T01:16:25.688Z,88.59
2023-04-11T01:17:16.494Z,88.49
2023-04-11T01:18:07.296Z,88.49
2023-04-11T01:18:58.072Z,88.39
2023-04-11T01:19:48.835Z,88.39
2023-04-11T01:20:39.619Z,88.39
2023-04-11T01:21:30.423Z,88.39
2023-04-11T01:22:21.215Z,88.49
2023-04-11T01:23:12.014Z,88.49
2023-04-11T01:24:02.929Z,88.29
2023-04-11T01:24:53.664Z,88.39
2023-04-11T01:25:44.448Z,88.39
2023-04-11T01:26:35.236Z,88.39
2023-04-11T01:27:26.060Z,88.39
2023-04-11T01:28:16.867Z,88.43
2023-04-11T01:29:07.607Z,88.53
2023-04-11T01:29:58.446Z,88.74
2023-04-11T01:30:49.266Z,88.74
2023-04-11T01:31:39.978Z,88.84
2023-04-11T01:32:30.855Z,89.04
2023-04-11T01:33:21.640Z,89.04
2023-04-11T01:34:12.416Z,89.15
2023-04-11T01:35:03.205Z,89.15
2023-04-11T01:35:54.024Z,89.15
2023-04-11T01:36:44.782Z,89.15
2023-04-11T01:37:35.605Z,89.25
2023-04-11T01:38:26.385Z,89.25
2023-04-11T01:39:17.162Z,89.25
2023-04-11T01:40:07.974Z,89.45
2023-04-11T01:40:58.727Z,89.45
2023-04-11T01:41:49.515Z,89.65
2023-04-11T01:42:40.304Z,89.56
2023-04-11T01:43:31.092Z,89.56
2023-04-11T01:44:21.871Z,89.56
2023-04-11T01:45:12.664Z,89.56
2023-04-11T01:46:03.462Z,89.56
2023-04-11T01:46:54.223Z,89.56
2023-04-11T01:47:45.056Z,89.65
2023-04-11T01:48:35.954Z,89.76
2023-04-11T01:49:26.742Z,89.76
2023-04-11T01:50:17.526Z,89.65
2023-04-11T01:51:08.328Z,89.76
2023-04-11T01:51:59.124Z,89.65
2023-04-11T01:52:49.913Z,89.65
2023-04-11T01:53:40.691Z,89.86
2023-04-11T01:54:31.477Z,89.86
2023-04-11T01:55:22.279Z,89.65
2023-04-11T01:56:13.047Z,89.76
2023-04-11T01:57:03.834Z,89.65
2023-04-11T01:57:54.663Z,89.65
2023-04-11T01:58:45.412Z,89.65
2023-04-11T01:59:36.183Z,89.90
2023-04-11T02:00:26.984Z,89.90
2023-04-11T02:01:17.798Z,90.00
2023-04-11T02:02:08.695Z,90.00
2023-04-11T02:02:59.594Z,90.11
2023-04-11T02:03:50.574Z,90.21
2023-04-11T02:04:41.483Z,90.21
2023-04-11T02:05:32.262Z,90.21
2023-04-11T02:06:23.019Z,90.31
2023-04-11T02:07:13.811Z,90.31
2023-04-11T02:08:04.606Z,90.21
2023-04-11T02:08:55.618Z,90.21
2023-04-11T02:09:46.550Z,90.21
2023-04-11T02:10:37.348Z,90.21
2023-04-11T02:11:28.123Z,90.21
2023-04-11T02:12:18.906Z,90.21
2023-04-11T02:13:09.721Z,90.31
2023-04-11T02:14:00.478Z,90.21
2023-04-11T02:14:51.266Z,90.31
2023-04-11T02:15:42.065Z,90.21
2023-04-11T02:16:32.868Z,90.21
2023-04-11T02:17:23.698Z,90.31
2023-04-11T02:18:14.477Z,90.41
2023-04-11T02:19:05.407Z,90.41
2023-04-11T02:19:56.118Z,90.41
2023-04-11T02:20:46.916Z,90.31
2023-04-11T02:21:37.710Z,90.31
2023-04-11T02:22:28.501Z,90.31
2023-04-11T02:23:19.295Z,90.31
2023-04-11T02:24:10.071Z,90.31
2023-04-11T02:25:00.865Z,90.31
2023-04-11T02:25:51.624Z,90.41
2023-04-11T02:26:42.393Z,90.41
2023-04-11T02:27:33.163Z,90.31
2023-04-11T02:28:23.934Z,90.31
2023-04-11T02:29:14.708Z,90.21
2023-04-11T02:30:05.481Z,90.31
2023-04-11T02:30:56.306Z,90.31
2023-04-11T02:31:47.232Z,90.31
2023-04-11T02:32:38.104Z,90.31
2023-04-11T02:33:28.832Z,90.31
2023-04-11T02:34:19.616Z,90.31
2023-04-11T02:35:10.402Z,90.31
2023-04-11T02:36:01.217Z,90.21
2023-04-11T02:36:51.970Z,90.21
2023-04-11T02:37:42.759Z,90.21
2023-04-11T02:38:33.557Z,90.31
2023-04-11T02:39:24.345Z,90.52
2023-04-11T02:40:15.124Z,90.72
2023-04-11T02:41:05.944Z,90.92
2023-04-11T02:41:56.682Z,90.92
2023-04-11T02:42:47.484Z,91.03
2023-04-11T02:43:38.259Z,91.38
2023-04-11T02:44:29.065Z,91.27
2023-04-11T02:45:19.849Z,91.38
2023-04-11T02:46:13.274Z,91.58
2023-04-11T02:47:01.657Z,91.58
2023-04-11T02:47:52.477Z,91.58
2023-04-11T02:48:43.260Z,91.48
2023-04-11T02:49:34.030Z,91.48
2023-04-11T02:50:24.803Z,91.48
2023-04-11T02:51:15.586Z,91.38
2023-04-11T02:52:06.398Z,91.27
2023-04-11T02:52:57.171Z,91.42
2023-04-11T02:53:47.966Z,91.31
2023-04-11T02:54:38.754Z,91.22
2023-04-11T02:55:29.574Z,91.31
2023-04-11T02:56:20.378Z,91.42
2023-04-11T02:57:11.132Z,91.52
2023-04-11T02:58:01.957Z,91.73
2023-04-11T02:58:52.759Z,91.73
2023-04-11T02:59:43.607Z,91.73
2023-04-11T03:00:34.315Z,91.73
2023-04-11T03:01:25.262Z,91.73
2023-04-11T03:02:16.062Z,91.73
2023-04-11T03:03:06.980Z,91.63
2023-04-11T03:03:57.887Z,91.63
2023-04-11T03:04:48.715Z,91.52
2023-04-11T03:05:39.468Z,91.42
2023-04-11T03:06:30.245Z,91.42
2023-04-11T03:07:21.021Z,91.42
2023-04-11T03:08:11.807Z,91.42
2023-04-11T03:09:02.524Z,91.31
2023-04-11T03:09:53.308Z,91.07
2023-04-11T03:10:44.095Z,90.86
2023-04-11T03:11:34.916Z,90.66
2023-04-11T03:12:25.664Z,90.70
2023-04-11T03:13:16.461Z,90.60
2023-04-11T03:14:07.260Z,90.60
2023-04-11T03:14:57.979Z,90.60
2023-04-11T03:15:48.778Z,90.50
2023-04-11T03:16:39.653Z,90.39
2023-04-11T03:17:30.454Z,90.39
2023-04-11T03:18:21.214Z,90.50
2023-04-11T03:19:12.025Z,90.60
2023-04-11T03:20:02.803Z,90.60
2023-04-11T03:20:53.589Z,90.50
2023-04-11T03:21:44.369Z,90.50
2023-04-11T03:22:35.155Z,90.30
2023-04-11T03:23:25.953Z,90.19
2023-04-11T03:24:16.711Z,90.19
2023-04-11T03:25:07.492Z,90.09
2023-04-11T03:25:58.302Z,89.98
2023-04-11T03:26:49.080Z,90.09
2023-04-11T03:27:39.866Z,89.98
2023-04-11T03:28:30.639Z,90.09
2023-04-11T03:29:21.428Z,90.09
2023-04-11T03:30:12.206Z,90.30
2023-04-11T03:31:03.008Z,90.50
2023-04-11T03:31:53.796Z,90.50
2023-04-11T03:32:44.652Z,90.39
2023-04-11T03:33:35.537Z,90.39
2023-04-11T03:34:26.363Z,90.50
2023-04-11T03:35:17.184Z,90.50
2023-04-11T03:36:07.975Z,90.39
2023-04-11T03:36:58.758Z,90.30
2023-04-11T03:37:49.550Z,90.09
2023-04-11T03:38:40.394Z,89.78
2023-04-11T03:39:31.125Z,89.68
2023-04-11T03:40:21.905Z,89.47
2023-04-11T03:41:12.745Z,89.27
2023-04-11T03:42:03.489Z,89.17
2023-04-11T03:42:54.253Z,89.23
2023-04-11T03:43:45.018Z,89.12
2023-04-11T03:44:35.809Z,89.12
2023-04-11T03:45:26.582Z,89.23
2023-04-11T03:46:17.393Z,89.12
2023-04-11T03:47:08.146Z,89.03
2023-04-11T03:47:58.949Z,89.03
2023-04-11T03:48:49.689Z,89.03
2023-04-11T03:49:40.425Z,88.92
2023-04-11T03:50:31.211Z,88.92
2023-04-11T03:51:22.008Z,88.92
2023-04-11T03:52:12.799Z,88.82
2023-04-11T03:53:03.596Z,88.62
2023-04-11T03:53:54.354Z,88.31
2023-04-11T03:54:47.024Z,88.00
2023-04-11T03:55:36.394Z,87.79
2023-04-11T03:56:27.471Z,87.59
2023-04-11T03:57:18.604Z,87.49
2023-04-11T03:58:09.335Z,87.18
2023-04-11T03:59:00.125Z,86.98
2023-04-11T03:59:50.881Z,86.88
2023-04-11T04:00:41.637Z,86.88
2023-04-11T04:01:32.433Z,86.36
2023-04-11T04:02:23.304Z,86.26
2023-04-11T04:03:14.280Z,86.10
2023-04-11T04:04:05.326Z,85.99
2023-04-11T04:04:56.147Z,85.79
2023-04-11T04:05:46.897Z,85.58
2023-04-11T04:06:38.064Z,85.48
2023-04-11T04:07:28.734Z,85.28
2023-04-11T04:08:19.402Z,85.38
2023-04-11T04:09:10.205Z,85.48
2023-04-11T04:10:00.966Z,85.48
2023-04-11T04:10:51.732Z,85.17
2023-04-11T04:11:42.504Z,84.87
2023-04-11T04:12:33.397Z,84.56
2023-04-11T04:13:24.375Z,84.50
2023-04-11T04:14:15.124Z,84.50
2023-04-11T04:15:05.996Z,84.29
2023-04-11T04:15:57.272Z,84.19
2023-04-11T04:16:48.088Z,83.88
2023-04-11T04:17:38.895Z,83.88
2023-04-11T04:18:29.567Z,83.78
2023-04-11T04:19:20.434Z,83.78
2023-04-11T04:20:11.315Z,83.68
2023-04-11T04:21:02.172Z,83.58
2023-04-11T04:21:53.030Z,83.58
2023-04-11T04:22:43.918Z,83.58
2023-04-11T04:23:34.778Z,83.58
2023-04-11T04:24:25.643Z,83.68
2023-04-11T04:25:16.515Z,83.68
2023-04-11T04:26:07.369Z,83.58
2023-04-11T04:26:58.268Z,83.68
2023-04-11T04:27:49.183Z,83.58
2023-04-11T04:28:40.049Z,83.37
2023-04-11T04:29:30.936Z,83.06
2023-04-11T04:30:22.079Z,82.76
2023-04-11T04:31:12.908Z,82.76
2023-04-11T04:32:03.856Z,82.55
2023-04-11T04:32:55.020Z,82.35
2023-04-11T04:33:45.342Z,82.39
2023-04-11T04:34:36.221Z,82.28
2023-04-11T04:35:27.162Z,82.39
2023-04-11T04:36:18.053Z,82.59
2023-04-11T04:37:08.927Z,82.59
2023-04-11T04:37:59.808Z,82.69
2023-04-11T04:38:50.708Z,82.59
2023-04-11T04:39:41.578Z,82.49
2023-04-11T04:40:32.458Z,82.49
2023-04-11T04:41:23.344Z,82.59
2023-04-11T04:42:14.221Z,82.69
2023-04-11T04:43:05.133Z,82.39
2023-04-11T04:43:56.170Z,82.28
2023-04-11T04:44:47.140Z,82.18
2023-04-11T04:45:38.055Z,82.18
2023-04-11T04:46:28.921Z,82.28
2023-04-11T04:47:19.811Z,82.39
2023-04-11T04:48:10.907Z,82.28
2023-04-11T04:49:02.582Z,82.28
2023-04-11T04:49:52.845Z,82.39
2023-04-11T04:50:43.721Z,82.49
2023-04-11T04:51:34.609Z,82.49
2023-04-11T04:52:25.500Z,82.28
2023-04-11T04:53:16.390Z,82.18
2023-04-11T04:54:07.280Z,82.28
2023-04-11T04:54:58.261Z,82.28
2023-04-11T04:55:49.082Z,82.28
2023-04-11T04:56:39.958Z,82.18
2023-04-11T04:57:30.845Z,81.98
2023-04-11T04:58:21.746Z,81.98
2023-04-11T04:59:12.612Z,81.98
2023-04-11T05:00:03.501Z,81.98
2023-04-11T05:00:54.393Z,81.91
2023-04-11T05:01:45.330Z,81.71
2023-04-11T05:02:36.339Z,81.81
2023-04-11T05:03:27.543Z,82.01
2023-04-11T05:04:18.060Z,82.22
2023-04-11T05:05:08.972Z,82.12
2023-04-11T05:05:59.857Z,82.22
2023-04-11T05:06:50.759Z,82.22
2023-04-11T05:07:41.649Z,82.12
2023-04-11T05:08:32.561Z,82.22
2023-04-11T05:09:23.434Z,82.32
2023-04-11T05:10:14.326Z,82.53
2023-04-11T05:11:05.228Z,82.53
2023-04-11T05:11:56.067Z,82.53
2023-04-11T05:12:46.949Z,82.63
2023-04-11T05:13:37.865Z,82.73
2023-04-11T05:14:28.742Z,82.93
2023-04-11T05:15:19.592Z,82.83
2023-04-11T05:16:10.514Z,82.73
2023-04-11T05:17:01.424Z,82.63
2023-04-11T05:17:52.290Z,82.53
2023-04-11T05:18:43.162Z,82.53
2023-04-11T05:19:34.012Z,82.53
2023-04-11T05:20:24.939Z,82.53
2023-04-11T05:21:15.833Z,82.63
2023-04-11T05:22:06.713Z,82.63
2023-04-11T05:22:57.624Z,82.63
2023-04-11T05:23:48.544Z,82.42
2023-04-11T05:24:39.438Z,82.22
2023-04-11T05:25:30.341Z,82.22
2023-04-11T05:26:21.237Z,82.22
2023-04-11T05:27:12.129Z,82.22
2023-04-11T05:28:03.023Z,82.12
2023-04-11T05:28:53.933Z,82.12
2023-04-11T05:29:44.809Z,82.12
2023-04-11T05:30:35.754Z,82.22
2023-04-11T05:31:26.624Z,82.22
2023-04-11T05:32:17.526Z,82.42
2023-04-11T05:33:08.445Z,82.63
2023-04-11T05:33:59.398Z,82.63
2023-04-11T05:34:50.255Z,82.63
2023-04-11T05:35:41.196Z,82.63
2023-04-11T05:36:32.047Z,82.63
2023-04-11T05:37:22.934Z,82.63
2023-04-11T05:38:13.854Z,82.53
2023-04-11T05:39:04.725Z,82.42
2023-04-11T05:39:55.623Z,82.22
2023-04-11T05:40:46.529Z,82.22
2023-04-11T05:41:37.469Z,82.32
2023-04-11T05:42:28.361Z,82.42
2023-04-11T05:43:19.271Z,82.53
2023-04-11T05:44:10.196Z,82.53
2023-04-11T05:45:01.094Z,82.42
2023-04-11T05:45:51.980Z,82.32
2023-04-11T05:46:42.845Z,82.32
2023-04-11T05:47:33.772Z,82.53
2023-04-11T05:48:24.672Z,82.73
2023-04-11T05:49:15.561Z,82.83
2023-04-11T05:50:06.453Z,82.93
2023-04-11T05:50:57.341Z,82.93
2023-04-11T05:51:48.230Z,82.83
2023-04-11T05:52:39.128Z,82.73
2023-04-11T05:53:30.020Z,82.73
2023-04-11T05:54:20.937Z,82.53
2023-04-11T05:55:11.823Z,82.42
2023-04-11T05:56:02.775Z,82.32
2023-04-11T05:56:53.630Z,82.32
2023-04-11T05:57:44.554Z,82.32
2023-04-11T05:58:35.422Z,82.42
2023-04-11T05:59:28.324Z,82.53
2023-04-11T06:00:17.244Z,82.42
2023-04-11T06:01:08.134Z,82.42
2023-04-11T06:01:59.150Z,82.73
2023-04-11T06:02:50.223Z,82.93
2023-04-11T06:03:41.303Z,83.04
2023-04-11T06:04:31.950Z,83.14
2023-04-11T06:05:22.328Z,83.25
2023-04-11T06:06:13.215Z,83.14
2023-04-11T06:07:04.118Z,82.83
2023-04-11T06:07:55.031Z,82.53
2023-04-11T06:08:45.929Z,82.32
2023-04-11T06:09:36.860Z,82.32
2023-04-11T06:10:27.742Z,82.42
2023-04-11T06:11:18.654Z,82.63
2023-04-11T06:12:09.566Z,82.63
2023-04-11T06:13:00.477Z,82.63
2023-04-11T06:13:51.378Z,82.73
2023-04-11T06:14:42.308Z,82.83
2023-04-11T06:15:33.275Z,82.93
2023-04-11T06:16:24.213Z,82.93
2023-04-11T06:17:15.095Z,82.93
2023-04-11T06:18:06.088Z,82.93
2023-04-11T06:18:57.005Z,82.63
2023-04-11T06:19:47.919Z,82.42
2023-04-11T06:20:38.830Z,82.32
2023-04-11T06:21:29.747Z,82.32
2023-04-11T06:22:20.669Z,82.42
2023-04-11T06:23:11.567Z,82.53
2023-04-11T06:24:02.489Z,82.73
2023-04-11T06:24:53.379Z,82.93
2023-04-11T06:25:44.268Z,82.93
2023-04-11T06:26:35.187Z,82.83
2023-04-11T06:27:26.084Z,82.83
2023-04-11T06:28:17.021Z,82.83
2023-04-11T06:29:07.918Z,82.73
2023-04-11T06:29:58.843Z,82.73
2023-04-11T06:30:49.762Z,82.73
2023-04-11T06:31:40.666Z,82.73
2023-04-11T06:32:31.657Z,82.73
2023-04-11T06:33:22.596Z,82.73
2023-04-11T06:34:13.511Z,82.77
2023-04-11T06:35:04.423Z,82.97
2023-04-11T06:35:55.332Z,82.97
2023-04-11T06:36:46.254Z,82.97
2023-04-11T06:37:37.166Z,83.07
2023-04-11T06:38:28.086Z,83.28
2023-04-11T06:39:18.997Z,83.39
2023-04-11T06:40:09.904Z,83.39
2023-04-11T06:41:00.823Z,83.49
2023-04-11T06:41:51.730Z,83.45
2023-04-11T06:42:42.624Z,83.34
2023-04-11T06:43:33.536Z,83.14
2023-04-11T06:44:24.595Z,83.25
2023-04-11T06:45:15.512Z,83.14
2023-04-11T06:46:06.446Z,83.14
2023-04-11T06:46:57.364Z,83.04
2023-04-11T06:47:48.311Z,82.93
2023-04-11T06:48:39.176Z,82.93
2023-04-11T06:49:30.079Z,83.04
2023-04-11T06:50:20.984Z,83.25
2023-04-11T06:51:11.959Z,83.25
2023-04-11T06:52:02.809Z,83.25
2023-04-11T06:52:53.712Z,83.34
2023-04-11T06:53:44.620Z,83.45
2023-04-11T06:54:35.532Z,83.34
2023-04-11T06:55:26.474Z,83.34
2023-04-11T06:56:17.401Z,83.25
2023-04-11T06:57:08.296Z,83.04
2023-04-11T06:57:59.215Z,82.93
2023-04-11T06:58:50.108Z,82.93
2023-04-11T06:59:41.006Z,83.04
2023-04-11T07:00:31.954Z,83.14
2023-04-11T07:01:22.852Z,83.14
2023-04-11T07:02:13.840Z,83.25
2023-04-11T07:03:04.933Z,83.14
2023-04-11T07:03:56.122Z,83.25
2023-04-11T07:04:46.770Z,83.25
2023-04-11T07:05:39.576Z,83.25
2023-04-11T07:06:28.717Z,83.28
2023-04-11T07:07:19.611Z,83.25
2023-04-11T07:08:10.507Z,83.39
2023-04-11T07:09:01.414Z,83.39
2023-04-11T07:09:52.309Z,83.59
2023-04-11T07:10:43.192Z,83.59
2023-04-11T07:11:34.089Z,83.49
2023-04-11T07:12:24.977Z,83.49
2023-04-11T07:13:15.920Z,83.39
2023-04-11T07:14:06.846Z,83.39
2023-04-11T07:14:57.746Z,83.39
2023-04-11T07:15:48.677Z,83.49
2023-04-11T07:16:39.583Z,83.59
2023-04-11T07:17:30.496Z,83.49
2023-04-11T07:18:21.407Z,83.59
2023-04-11T07:19:12.328Z,83.59
2023-04-11T07:20:03.218Z,83.59
2023-04-11T07:20:54.192Z,83.69
2023-04-11T07:21:45.101Z,83.69
2023-04-11T07:22:36.012Z,83.69
2023-04-11T07:23:26.933Z,83.80
2023-04-11T07:24:17.827Z,83.80
2023-04-11T07:25:08.793Z,83.59
2023-04-11T07:25:59.675Z,83.49
2023-04-11T07:26:50.613Z,83.49
2023-04-11T07:27:41.502Z,83.49
2023-04-11T07:28:32.409Z,83.59
2023-04-11T07:29:23.322Z,83.39
2023-04-11T07:30:14.244Z,83.28
2023-04-11T07:31:05.203Z,83.28
2023-04-11T07:31:56.114Z,83.39
2023-04-11T07:32:47.083Z,83.39
2023-04-11T07:33:38.025Z,83.28
2023-04-11T07:34:28.955Z,83.28
2023-04-11T07:35:19.854Z,83.39
2023-04-11T07:36:10.787Z,83.49
2023-04-11T07:37:01.686Z,83.59
2023-04-11T07:37:52.597Z,83.59
2023-04-11T07:38:43.510Z,83.59
2023-04-11T07:39:34.418Z,83.69
2023-04-11T07:40:25.333Z,83.80
2023-04-11T07:41:16.296Z,84.00
2023-04-11T07:42:07.177Z,84.31
2023-04-11T07:42:58.095Z,84.61
2023-04-11T07:43:48.995Z,84.72
2023-04-11T07:44:39.902Z,84.92
2023-04-11T07:45:30.853Z,85.17
2023-04-11T07:46:21.757Z,85.38
2023-04-11T07:47:12.624Z,85.68
2023-04-11T07:48:03.587Z,85.78
2023-04-11T07:48:54.503Z,85.78
2023-04-11T07:49:45.400Z,86.09
2023-04-11T07:50:36.320Z,86.30
2023-04-11T07:51:27.235Z,86.50
2023-04-11T07:52:18.193Z,86.71
2023-04-11T07:53:09.134Z,86.81
2023-04-11T07:54:00.041Z,86.91
2023-04-11T07:54:50.951Z,86.71
2023-04-11T07:55:41.852Z,86.60
2023-04-11T07:56:32.764Z,86.50
2023-04-11T07:57:23.676Z,86.09
2023-04-11T07:58:14.591Z,85.89
2023-04-11T07:59:05.495Z,85.89
2023-04-11T07:59:56.395Z,85.93
2023-04-11T08:00:47.307Z,86.13
2023-04-11T08:01:38.296Z,86.33
2023-04-11T08:02:29.337Z,86.54
2023-04-11T08:03:20.525Z,86.65
2023-04-11T08:04:11.210Z,86.85
2023-04-11T08:05:02.300Z,87.16
2023-04-11T08:05:53.367Z,87.16
2023-04-11T08:06:44.266Z,87.46
2023-04-11T08:07:35.173Z,87.37
2023-04-11T08:08:26.107Z,87.37
2023-04-11T08:09:17.014Z,87.46
2023-04-11T08:10:07.932Z,87.77
2023-04-11T08:10:58.833Z,87.77
2023-04-11T08:11:49.741Z,87.88
2023-04-11T08:12:40.654Z,87.77
2023-04-11T08:13:31.584Z,87.67
2023-04-11T08:14:22.484Z,87.77
2023-04-11T08:15:13.382Z,87.98
2023-04-11T08:16:04.308Z,88.29
2023-04-11T08:16:55.292Z,88.18
2023-04-11T08:17:46.157Z,88.08
2023-04-11T08:18:37.047Z,88.18
2023-04-11T08:19:27.973Z,88.29
2023-04-11T08:20:18.880Z,88.08
2023-04-11T08:21:09.774Z,88.18
2023-04-11T08:22:00.669Z,87.98
2023-04-11T08:22:51.654Z,87.98
2023-04-11T08:23:42.892Z,88.08
2023-04-11T08:24:33.789Z,87.98
2023-04-11T08:25:24.699Z,87.67
2023-04-11T08:26:15.620Z,87.26
2023-04-11T08:27:06.550Z,87.26
2023-04-11T08:27:57.460Z,86.27
2023-04-11T08:28:48.406Z,86.58
2023-04-11T08:29:39.314Z,86.58
2023-04-11T08:30:30.250Z,86.89
2023-04-11T08:31:21.283Z,87.20
2023-04-11T08:32:12.199Z,87.51
2023-04-11T08:33:03.123Z,87.51
2023-04-11T08:33:54.190Z,87.40
2023-04-11T08:34:45.154Z,87.20
2023-04-11T08:35:36.315Z,87.13
2023-04-11T08:36:27.172Z,87.24
2023-04-11T08:37:18.083Z,87.45
2023-04-11T08:38:09.000Z,87.45
2023-04-11T08:38:59.924Z,87.55
2023-04-11T08:39:50.824Z,87.65
2023-04-11T08:40:41.743Z,87.85
2023-04-11T08:41:32.634Z,87.96
2023-04-11T08:42:23.558Z,88.17
2023-04-11T08:43:15.193Z,88.27
2023-04-11T08:44:05.498Z,87.85
2023-04-11T08:44:56.416Z,88.17
2023-04-11T08:45:47.349Z,88.27
2023-04-11T08:46:38.313Z,88.41
2023-04-11T08:47:29.340Z,88.51
2023-04-11T08:48:20.204Z,88.62
2023-04-11T08:49:11.111Z,88.92
2023-04-11T08:50:02.012Z,88.92
2023-04-11T08:50:52.966Z,89.13
2023-04-11T08:51:43.840Z,89.23
2023-04-11T08:52:34.763Z,89.34
2023-04-11T08:53:25.663Z,89.54
2023-04-11T08:54:16.611Z,89.44
2023-04-11T08:55:07.535Z,89.54
2023-04-11T08:55:58.402Z,89.64
2023-04-11T08:56:49.309Z,89.85
2023-04-11T08:57:40.202Z,89.85
2023-04-11T08:58:31.101Z,90.06
2023-04-11T08:59:22.023Z,90.26
2023-04-11T09:00:12.930Z,90.26
2023-04-11T09:01:03.860Z,90.36
2023-04-11T09:01:54.828Z,90.47
2023-04-11T09:02:46.088Z,90.57
2023-04-11T09:03:36.539Z,90.67
2023-04-11T09:04:27.465Z,90.88
2023-04-11T09:05:18.366Z,90.94
2023-04-11T09:06:09.276Z,91.04
2023-04-11T09:07:01.310Z,90.94
2023-04-11T09:07:51.113Z,91.04
2023-04-11T09:08:42.020Z,91.04
2023-04-11T09:09:32.929Z,91.04
2023-04-11T09:10:23.838Z,91.04
2023-04-11T09:11:14.768Z,91.04
2023-04-11T09:12:05.705Z,91.04
2023-04-11T09:12:56.574Z,91.04
2023-04-11T09:13:47.498Z,91.04
2023-04-11T09:14:38.513Z,90.94
2023-04-11T09:15:29.446Z,91.14
2023-04-11T09:16:20.467Z,91.14
2023-04-11T09:17:11.423Z,91.14
2023-04-11T09:18:02.401Z,91.14
2023-04-11T09:18:53.239Z,91.14
2023-04-11T09:19:45.556Z,91.14
2023-04-11T09:20:35.310Z,91.25
2023-04-11T09:21:26.232Z,91.35
2023-04-11T09:22:17.153Z,91.35
2023-04-11T09:23:08.047Z,91.41
2023-04-11T09:23:58.978Z,91.51
2023-04-11T09:24:49.901Z,91.31
2023-04-11T09:25:40.799Z,91.10
2023-04-11T09:26:31.708Z,91.20
2023-04-11T09:27:22.624Z,91.31
2023-04-11T09:28:13.549Z,91.41
2023-04-11T09:29:04.470Z,91.51
2023-04-11T09:29:55.361Z,91.61
2023-04-11T09:30:46.315Z,91.72
2023-04-11T09:31:37.224Z,91.67
2023-04-11T09:32:30.779Z,91.57
2023-04-11T09:33:19.261Z,91.37
2023-04-11T09:34:10.150Z,91.27
2023-04-11T09:35:01.047Z,91.16
2023-04-11T09:35:52.014Z,90.95
2023-04-11T09:36:42.876Z,90.81
2023-04-11T09:37:33.843Z,90.91
2023-04-11T09:38:24.725Z,90.91
2023-04-11T09:39:15.669Z,90.91
2023-04-11T09:40:06.614Z,90.67
2023-04-11T09:40:57.554Z,90.56
2023-04-11T09:41:48.510Z,90.77
2023-04-11T09:42:39.431Z,90.93
2023-04-11T09:43:30.375Z,90.89
2023-04-11T09:44:21.308Z,90.58
2023-04-11T09:45:12.282Z,90.03
2023-04-11T09:46:03.280Z,89.62
2023-04-11T09:46:54.201Z,89.27
2023-04-11T09:47:45.167Z,88.96
2023-04-11T09:48:46.068Z,88.96
2023-04-11T09:49:27.947Z,88.96
2023-04-11T09:50:17.652Z,89.06
2023-04-11T09:51:08.563Z,88.65
2023-04-11T09:51:59.530Z,88.56
2023-04-11T09:52:50.436Z,88.56
2023-04-11T09:53:41.388Z,88.45
2023-04-11T09:54:32.303Z,88.24
2023-04-11T09:55:23.235Z,88.04
2023-04-11T09:56:14.151Z,87.94
2023-04-11T09:57:05.154Z,87.94
2023-04-11T09:57:56.062Z,87.84
2023-04-11T09:58:46.983Z,87.59
2023-04-11T09:59:37.895Z,87.63
2023-04-11T10:00:28.821Z,87.73
2023-04-11T10:01:19.787Z,87.70
2023-04-11T10:02:10.834Z,87.29
2023-04-11T10:03:01.945Z,87.18
2023-04-11T10:03:52.946Z,87.08
2023-04-11T10:04:43.360Z,86.88
2023-04-11T10:05:34.256Z,86.32
2023-04-11T10:06:25.172Z,85.81
2023-04-11T10:07:16.124Z,85.71
2023-04-11T10:08:07.065Z,85.40
2023-04-11T10:08:58.248Z,85.20
2023-04-11T10:09:48.654Z,85.10
2023-04-11T10:10:39.587Z,84.99
2023-04-11T10:11:30.507Z,84.99
2023-04-11T10:12:21.442Z,84.89
2023-04-11T10:13:12.376Z,85.10
2023-04-11T10:14:03.298Z,85.20
2023-04-11T10:14:54.211Z,84.99
2023-04-11T10:15:45.121Z,84.69
2023-04-11T10:16:36.068Z,84.69
2023-04-11T10:17:26.978Z,84.28
2023-04-11T10:18:17.872Z,84.17
2023-04-11T10:19:08.808Z,84.22
2023-04-11T10:19:59.707Z,84.31
2023-04-11T10:20:50.642Z,84.42
2023-04-11T10:21:41.511Z,83.81
2023-04-11T10:22:32.425Z,84.01
2023-04-11T10:23:23.331Z,84.01
2023-04-11T10:24:16.688Z,84.31
2023-04-11T10:25:05.126Z,84.25
2023-04-11T10:25:56.013Z,84.25
2023-04-11T10:26:46.915Z,84.15
2023-04-11T10:27:37.827Z,83.95
2023-04-11T10:28:28.751Z,84.15
2023-04-11T10:29:19.645Z,83.84
2023-04-11T10:30:10.580Z,83.74
2023-04-11T10:31:01.496Z,83.84
2023-04-11T10:31:52.460Z,84.05
2023-04-11T10:32:43.402Z,84.15
2023-04-11T10:33:34.280Z,84.15
2023-04-11T10:34:25.233Z,84.05
2023-04-11T10:35:16.145Z,83.91
2023-04-11T10:36:07.207Z,83.50
2023-04-11T10:36:58.132Z,82.68
2023-04-11T10:37:49.042Z,82.78
2023-04-11T10:38:40.002Z,82.82
2023-04-11T10:39:30.884Z,83.13
2023-04-11T10:40:21.793Z,83.44
2023-04-11T10:41:12.708Z,83.74
2023-04-11T10:42:03.636Z,83.81
2023-04-11T10:42:54.561Z,83.70
2023-04-11T10:43:45.502Z,83.19
2023-04-11T10:44:36.438Z,83.05
2023-04-11T10:45:27.359Z,82.95
2023-04-11T10:46:18.318Z,82.70
2023-04-11T10:47:09.327Z,82.70
2023-04-11T10:48:00.261Z,82.50
2023-04-11T10:48:51.145Z,81.24
2023-04-11T10:49:42.097Z,81.34
2023-04-11T10:50:32.977Z,80.93
2023-04-11T10:51:23.889Z,80.97
2023-04-11T10:52:14.792Z,79.33
2023-04-11T10:53:05.712Z,79.13
2023-04-11T10:53:56.618Z,79.27
2023-04-11T10:54:47.556Z,79.47